createdAt,value
2019-03-29T00:00:16.036Z,4.50
2019-03-29T00:02:46.968Z,4.50
2019-03-29T00:05:16.315Z,4.50
2019-03-29T00:07:45.727Z,4.50
2019-03-29T00:10:15.176Z,4.40
2019-03-29T00:12:44.588Z,4.40
2019-03-29T00:15:14.822Z,4.40
2019-03-29T00:17:44.935Z,4.40
2019-03-29T00:20:15.224Z,4.40
2019-03-29T00:22:45.207Z,4.30
2019-03-29T00:25:34.678Z,4.30
2019-03-29T00:28:03.988Z,4.30
2019-03-29T00:30:33.320Z,4.30
2019-03-29T00:33:02.624Z,4.30
2019-03-29T00:35:31.981Z,4.20
2019-03-29T00:38:01.473Z,4.20
2019-03-29T00:40:30.818Z,4.20
2019-03-29T00:43:00.217Z,4.20
2019-03-29T00:45:29.552Z,4.20
2019-03-29T00:47:58.852Z,4.10
2019-03-29T00:50:28.186Z,4.10
2019-03-29T00:52:57.518Z,4.10
2019-03-29T00:55:26.870Z,4.10
2019-03-29T00:57:56.862Z,4.10
2019-03-29T01:00:26.324Z,4.10
2019-03-29T01:02:55.674Z,4.10
2019-03-29T01:05:25.353Z,4.10
2019-03-29T01:08:07.022Z,4.00
2019-03-29T01:10:25.735Z,4.00
2019-03-29T01:12:55.090Z,4.00
2019-03-29T01:15:24.725Z,3.90
2019-03-29T01:17:54.073Z,3.90
2019-03-29T01:20:23.392Z,3.90
2019-03-29T01:22:52.725Z,3.80
2019-03-29T01:25:22.063Z,3.80
2019-03-29T01:27:51.404Z,3.80
2019-03-29T01:30:20.841Z,3.80
2019-03-29T01:32:50.181Z,3.80
2019-03-29T01:35:19.574Z,3.80
2019-03-29T01:37:50.099Z,3.70
2019-03-29T01:40:20.014Z,3.70
2019-03-29T01:42:50.291Z,3.70
2019-03-29T01:45:20.278Z,3.70
2019-03-29T01:47:50.586Z,3.60
2019-03-29T01:50:20.609Z,3.60
2019-03-29T01:52:49.902Z,3.50
2019-03-29T01:55:19.282Z,3.50
2019-03-29T01:57:48.889Z,3.50
2019-03-29T02:00:29.500Z,3.50
2019-03-29T02:02:58.855Z,3.50
2019-03-29T02:05:28.163Z,3.50
2019-03-29T02:07:57.572Z,3.50
2019-03-29T02:10:26.914Z,3.50
2019-03-29T02:12:57.250Z,3.50
2019-03-29T02:15:26.646Z,3.50
2019-03-29T02:17:56.001Z,3.40
2019-03-29T02:20:25.331Z,3.40
2019-03-29T02:22:54.672Z,3.40
2019-03-29T02:25:23.963Z,3.30
2019-03-29T02:27:53.321Z,3.30
2019-03-29T02:30:22.960Z,3.30
2019-03-29T02:32:53.200Z,3.20
2019-03-29T02:35:23.281Z,3.20
2019-03-29T02:37:53.418Z,3.20
2019-03-29T02:40:23.551Z,3.10
2019-03-29T02:42:53.792Z,3.20
2019-03-29T02:45:23.896Z,3.10
2019-03-29T02:47:54.021Z,3.10
2019-03-29T02:50:24.283Z,3.10
2019-03-29T02:52:54.332Z,3.10
2019-03-29T02:55:24.446Z,3.10
2019-03-29T02:57:55.968Z,3.10
2019-03-29T03:00:25.306Z,3.10
2019-03-29T03:02:54.919Z,3.10
2019-03-29T03:05:25.242Z,3.10
2019-03-29T03:07:58.881Z,3.10
2019-03-29T03:10:28.239Z,3.10
2019-03-29T03:12:57.628Z,3.10
2019-03-29T03:15:26.939Z,3.10
2019-03-29T03:17:56.473Z,3.10
2019-03-29T03:20:25.992Z,3.10
2019-03-29T03:23:15.587Z,3.00
2019-03-29T03:25:44.925Z,3.00
2019-03-29T03:28:14.238Z,3.00
2019-03-29T03:30:43.785Z,3.00
2019-03-29T03:33:13.279Z,2.90
2019-03-29T03:35:42.603Z,2.90
2019-03-29T03:38:11.895Z,2.90
2019-03-29T03:40:41.311Z,2.90
2019-03-29T03:43:10.666Z,2.90
2019-03-29T03:45:39.997Z,2.90
2019-03-29T03:48:09.723Z,2.90
2019-03-29T03:50:40.478Z,2.80
2019-03-29T03:53:10.635Z,2.80
2019-03-29T03:55:41.206Z,2.80
2019-03-29T03:58:11.179Z,2.80
2019-03-29T04:00:55.242Z,2.80
2019-03-29T04:03:26.393Z,2.80
2019-03-29T04:05:56.840Z,2.70
2019-03-29T04:08:26.306Z,2.70
2019-03-29T04:10:55.706Z,2.70
2019-03-29T04:13:25.125Z,2.70
2019-03-29T04:15:54.456Z,2.70
2019-03-29T04:18:23.773Z,2.70
2019-03-29T04:20:53.163Z,2.70
2019-03-29T04:23:22.539Z,2.70
2019-03-29T04:25:51.898Z,2.70
2019-03-29T04:28:28.255Z,2.60
2019-03-29T04:31:01.053Z,2.60
2019-03-29T04:33:30.558Z,2.60
2019-03-29T04:36:00.847Z,2.60
2019-03-29T04:38:30.795Z,2.60
2019-03-29T04:41:01.086Z,2.60
2019-03-29T04:43:31.107Z,2.60
2019-03-29T04:46:01.622Z,2.50
2019-03-29T04:48:31.469Z,2.50
2019-03-29T04:51:01.611Z,2.50
2019-03-29T04:53:31.754Z,2.50
2019-03-29T04:56:01.889Z,2.50
2019-03-29T04:58:32.378Z,2.40
2019-03-29T05:01:02.335Z,2.40
2019-03-29T05:03:32.459Z,2.40
2019-03-29T05:06:02.731Z,2.40
2019-03-29T05:08:32.995Z,2.40
2019-03-29T05:11:02.915Z,2.40
2019-03-29T05:13:33.183Z,2.30
2019-03-29T05:16:03.260Z,2.30
2019-03-29T05:18:33.423Z,2.30
2019-03-29T05:21:03.731Z,2.30
2019-03-29T05:23:33.711Z,2.30
2019-03-29T05:26:04.302Z,2.30
2019-03-29T05:28:34.033Z,2.30
2019-03-29T05:31:04.095Z,2.30
2019-03-29T05:33:34.227Z,2.30
2019-03-29T05:36:04.474Z,2.30
2019-03-29T05:38:34.588Z,2.40
2019-03-29T05:41:04.713Z,2.40
2019-03-29T05:43:34.870Z,2.40
2019-03-29T05:46:05.044Z,2.40
2019-03-29T05:48:35.097Z,2.50
2019-03-29T05:51:05.334Z,2.60
2019-03-29T05:53:35.813Z,2.60
2019-03-29T05:56:05.549Z,2.70
2019-03-29T05:58:35.777Z,2.70
2019-03-29T06:01:05.083Z,2.80
2019-03-29T06:03:34.463Z,2.80
2019-03-29T06:06:06.300Z,2.90
2019-03-29T06:08:35.603Z,3.00
2019-03-29T06:11:04.923Z,3.20
2019-03-29T06:13:34.227Z,3.30
2019-03-29T06:16:06.083Z,3.60
2019-03-29T06:18:34.543Z,3.80
2019-03-29T06:21:03.851Z,4.30
2019-03-29T06:23:33.191Z,4.80
2019-03-29T06:26:02.487Z,5.50
2019-03-29T06:28:31.802Z,6.10
2019-03-29T06:31:01.140Z,6.70
2019-03-29T06:33:30.449Z,7.30
2019-03-29T06:36:01.401Z,7.90
2019-03-29T06:38:33.729Z,8.60
2019-03-29T06:41:03.688Z,9.20
2019-03-29T06:43:33.239Z,9.90
2019-03-29T06:46:02.550Z,10.30
2019-03-29T06:48:32.068Z,10.90
2019-03-29T06:51:01.367Z,11.50
2019-03-29T06:53:30.690Z,11.70
2019-03-29T06:56:00.029Z,12.20
2019-03-29T06:58:39.542Z,12.40
2019-03-29T07:01:08.898Z,13.00
2019-03-29T07:03:38.256Z,13.00
2019-03-29T07:06:07.610Z,13.10
2019-03-29T07:08:36.965Z,13.10
2019-03-29T07:11:16.732Z,13.30
2019-03-29T07:13:37.482Z,13.70
2019-03-29T07:16:06.830Z,13.80
2019-03-29T07:18:36.353Z,14.00
2019-03-29T07:21:05.678Z,14.20
2019-03-29T07:23:35.072Z,13.80
2019-03-29T07:26:04.385Z,13.90
2019-03-29T07:28:34.701Z,13.90
2019-03-29T07:31:04.129Z,13.90
2019-03-29T07:33:33.456Z,14.30
2019-03-29T07:36:02.795Z,14.50
2019-03-29T07:38:32.098Z,14.90
2019-03-29T07:41:01.426Z,14.90
2019-03-29T07:43:30.822Z,15.30
2019-03-29T07:46:00.195Z,16.00
2019-03-29T07:48:29.500Z,16.10
2019-03-29T07:50:58.868Z,16.50
2019-03-29T07:53:28.205Z,17.00
2019-03-29T07:55:57.540Z,17.00
2019-03-29T07:58:27.809Z,16.90
2019-03-29T08:00:57.119Z,17.10
2019-03-29T08:03:26.434Z,17.30
2019-03-29T08:05:55.751Z,17.30
2019-03-29T08:08:31.795Z,17.00
2019-03-29T08:10:56.197Z,16.60
2019-03-29T08:13:25.609Z,16.70
2019-03-29T08:15:54.993Z,17.10
2019-03-29T08:18:25.286Z,17.70
2019-03-29T08:20:55.767Z,17.10
2019-03-29T08:23:28.526Z,17.30
2019-03-29T08:25:56.128Z,16.60
2019-03-29T08:28:25.440Z,16.90
2019-03-29T08:30:54.774Z,17.00
2019-03-29T08:33:24.112Z,17.10
2019-03-29T08:35:53.525Z,17.50
2019-03-29T08:38:22.842Z,17.40
2019-03-29T08:40:52.163Z,17.60
2019-03-29T08:43:21.486Z,17.80
2019-03-29T08:45:50.841Z,16.60
2019-03-29T08:48:20.151Z,16.50
2019-03-29T08:50:49.486Z,16.50
2019-03-29T08:53:18.841Z,17.00
2019-03-29T08:55:48.164Z,17.30
2019-03-29T08:58:17.822Z,17.80
2019-03-29T09:00:47.993Z,17.80
2019-03-29T09:03:18.029Z,17.70
2019-03-29T09:05:48.191Z,18.10
2019-03-29T09:08:18.458Z,17.70
2019-03-29T09:10:48.539Z,17.90
2019-03-29T09:13:18.926Z,18.20
2019-03-29T09:15:48.778Z,18.10
2019-03-29T09:18:19.061Z,18.10
2019-03-29T09:20:49.106Z,18.20
2019-03-29T09:23:19.389Z,18.10
2019-03-29T09:25:49.456Z,18.20
2019-03-29T09:28:19.700Z,18.50
2019-03-29T09:30:49.820Z,18.20
2019-03-29T09:33:19.957Z,18.60
2019-03-29T09:35:50.026Z,18.80
2019-03-29T09:38:20.277Z,18.50
2019-03-29T09:40:58.383Z,19.20
2019-03-29T09:43:21.848Z,19.10
2019-03-29T09:45:52.144Z,19.40
2019-03-29T09:48:21.659Z,19.60
2019-03-29T09:50:51.229Z,19.60
2019-03-29T09:53:21.601Z,20.40
2019-03-29T09:55:53.437Z,20.70
2019-03-29T09:58:22.382Z,20.70
2019-03-29T10:00:51.786Z,20.50
2019-03-29T10:03:21.883Z,20.90
2019-03-29T10:05:52.042Z,21.10
2019-03-29T10:08:22.392Z,20.80
2019-03-29T10:10:52.348Z,20.90
2019-03-29T10:13:22.592Z,20.70
2019-03-29T10:15:52.761Z,20.70
2019-03-29T10:18:22.834Z,20.10
2019-03-29T10:20:52.970Z,20.00
2019-03-29T10:23:23.199Z,19.80
2019-03-29T10:25:53.487Z,19.60
2019-03-29T10:28:23.565Z,19.80
2019-03-29T10:30:53.801Z,20.30
2019-03-29T10:33:24.004Z,20.30
2019-03-29T10:35:53.980Z,20.60
2019-03-29T10:38:24.292Z,20.80
2019-03-29T10:40:54.566Z,21.10
2019-03-29T10:43:24.473Z,20.90
2019-03-29T10:45:54.597Z,21.20
2019-03-29T10:48:24.882Z,21.70
2019-03-29T10:50:54.869Z,22.40
2019-03-29T10:53:28.456Z,22.40
2019-03-29T10:55:56.190Z,22.20
2019-03-29T10:58:25.566Z,21.20
2019-03-29T11:00:55.542Z,21.40
2019-03-29T11:03:28.532Z,21.00
2019-03-29T11:05:56.762Z,21.10
2019-03-29T11:08:26.073Z,20.50
2019-03-29T11:10:56.336Z,21.10
2019-03-29T11:13:26.400Z,20.80
2019-03-29T11:15:56.554Z,20.60
2019-03-29T11:18:26.669Z,20.70
2019-03-29T11:20:56.817Z,20.90
2019-03-29T11:23:26.978Z,21.50
2019-03-29T11:25:57.112Z,22.00
2019-03-29T11:28:27.352Z,22.80
2019-03-29T11:30:57.406Z,23.10
2019-03-29T11:33:27.661Z,22.90
2019-03-29T11:35:57.911Z,23.30
2019-03-29T11:38:27.833Z,23.00
2019-03-29T11:40:57.945Z,23.10
2019-03-29T11:43:28.187Z,22.60
2019-03-29T11:45:58.228Z,22.80
2019-03-29T11:48:29.666Z,22.80
2019-03-29T11:50:59.196Z,22.60
2019-03-29T11:53:28.716Z,22.20
2019-03-29T11:55:58.952Z,23.00
2019-03-29T11:58:41.688Z,22.90
2019-03-29T12:01:11.112Z,22.90
2019-03-29T12:03:41.187Z,22.60
2019-03-29T12:06:12.144Z,22.20
2019-03-29T12:08:41.562Z,21.80
2019-03-29T12:11:10.852Z,21.90
2019-03-29T12:13:41.457Z,22.00
2019-03-29T12:16:14.507Z,22.70
2019-03-29T12:18:50.563Z,22.10
2019-03-29T12:21:19.876Z,21.40
2019-03-29T12:23:49.213Z,21.60
2019-03-29T12:26:18.597Z,22.00
2019-03-29T12:28:55.183Z,22.40
2019-03-29T12:31:24.497Z,23.20
2019-03-29T12:33:53.828Z,23.30
2019-03-29T12:36:23.417Z,23.10
2019-03-29T12:38:52.737Z,23.10
2019-03-29T12:41:22.067Z,22.90
2019-03-29T12:43:55.823Z,23.00
2019-03-29T12:46:22.523Z,22.60
2019-03-29T12:48:51.988Z,22.50
2019-03-29T12:51:21.306Z,22.10
2019-03-29T12:53:51.123Z,22.70
2019-03-29T12:56:20.447Z,22.60
2019-03-29T12:58:50.841Z,22.80
2019-03-29T13:01:20.253Z,22.20
2019-03-29T13:03:49.655Z,22.10
2019-03-29T13:06:18.958Z,22.30
2019-03-29T13:08:48.288Z,22.20
2019-03-29T13:11:17.629Z,22.20
2019-03-29T13:13:46.952Z,21.80
2019-03-29T13:16:16.345Z,22.00
2019-03-29T13:18:49.107Z,22.50
2019-03-29T13:21:18.470Z,23.00
2019-03-29T13:23:47.825Z,22.60
2019-03-29T13:26:17.385Z,22.60
2019-03-29T13:28:47.121Z,22.20
2019-03-29T13:31:16.513Z,23.00
2019-03-29T13:33:45.830Z,22.90
2019-03-29T13:36:15.348Z,23.10
2019-03-29T13:38:44.648Z,23.10
2019-03-29T13:41:13.946Z,22.30
2019-03-29T13:43:43.301Z,22.20
2019-03-29T13:46:12.704Z,22.50
2019-03-29T13:48:42.032Z,22.40
2019-03-29T13:51:11.382Z,22.40
2019-03-29T13:53:40.827Z,22.40
2019-03-29T13:56:10.266Z,22.50
2019-03-29T13:58:40.776Z,22.30
2019-03-29T14:01:10.135Z,22.30
2019-03-29T14:03:42.179Z,22.40
2019-03-29T14:06:12.130Z,22.20
2019-03-29T14:08:41.521Z,22.00
2019-03-29T14:11:10.907Z,21.60
2019-03-29T14:13:40.281Z,21.00
2019-03-29T14:16:09.661Z,20.30
2019-03-29T14:18:39.001Z,19.80
2019-03-29T14:21:08.354Z,19.80
2019-03-29T14:23:38.395Z,20.10
2019-03-29T14:26:08.258Z,20.00
2019-03-29T14:28:38.598Z,20.10
2019-03-29T14:31:08.668Z,20.00
2019-03-29T14:33:39.061Z,20.00
2019-03-29T14:36:08.889Z,19.90
2019-03-29T14:38:39.143Z,19.80
2019-03-29T14:41:09.309Z,19.70
2019-03-29T14:43:39.553Z,19.70
2019-03-29T14:46:09.607Z,19.70
2019-03-29T14:48:39.907Z,19.60
2019-03-29T14:51:10.250Z,19.50
2019-03-29T14:53:40.106Z,19.40
2019-03-29T14:56:10.311Z,19.30
2019-03-29T14:58:40.366Z,19.20
2019-03-29T15:01:10.729Z,19.00
2019-03-29T15:03:40.945Z,19.00
2019-03-29T15:06:11.073Z,18.90
2019-03-29T15:08:41.125Z,18.80
2019-03-29T15:11:21.730Z,18.90
2019-03-29T15:13:42.566Z,18.80
2019-03-29T15:16:11.997Z,18.80
2019-03-29T15:18:41.747Z,18.70
2019-03-29T15:21:12.018Z,18.80
2019-03-29T15:23:42.014Z,18.90
2019-03-29T15:26:12.303Z,18.80
2019-03-29T15:28:42.354Z,18.80
2019-03-29T15:31:12.521Z,18.70
2019-03-29T15:33:42.689Z,18.70
2019-03-29T15:36:12.945Z,18.70
2019-03-29T15:38:43.016Z,18.70
2019-03-29T15:41:13.301Z,18.60
2019-03-29T15:43:43.490Z,18.60
2019-03-29T15:46:13.554Z,18.60
2019-03-29T15:48:43.728Z,18.50
2019-03-29T15:51:13.806Z,18.60
2019-03-29T15:53:43.966Z,18.50
2019-03-29T15:56:14.496Z,18.50
2019-03-29T15:58:44.263Z,18.40
2019-03-29T16:01:14.411Z,18.30
2019-03-29T16:03:44.774Z,18.20
2019-03-29T16:06:14.748Z,18.10
2019-03-29T16:08:45.073Z,18.10
2019-03-29T16:11:17.983Z,18.10
2019-03-29T16:13:46.071Z,18.10
2019-03-29T16:16:15.483Z,18.00
2019-03-29T16:18:47.557Z,18.00
2019-03-29T16:21:17.010Z,17.90
2019-03-29T16:23:46.420Z,17.90
2019-03-29T16:26:16.007Z,17.80
2019-03-29T16:28:46.350Z,17.80
2019-03-29T16:31:16.365Z,17.70
2019-03-29T16:33:46.529Z,17.60
2019-03-29T16:36:16.726Z,17.60
2019-03-29T16:38:46.859Z,17.50
2019-03-29T16:41:17.032Z,17.40
2019-03-29T16:43:47.231Z,17.30
2019-03-29T16:46:17.328Z,17.30
2019-03-29T16:48:48.803Z,17.20
2019-03-29T16:51:18.130Z,17.20
2019-03-29T16:53:47.896Z,17.20
2019-03-29T16:56:18.024Z,17.10
2019-03-29T16:58:48.294Z,17.10
2019-03-29T17:01:18.553Z,17.00
2019-03-29T17:03:48.603Z,16.90
2019-03-29T17:06:18.684Z,16.80
2019-03-29T17:08:48.968Z,16.70
2019-03-29T17:11:19.023Z,16.70
2019-03-29T17:13:49.202Z,16.60
2019-03-29T17:16:29.723Z,16.60
2019-03-29T17:18:51.313Z,16.50
2019-03-29T17:21:20.666Z,16.50
2019-03-29T17:23:52.558Z,16.40
2019-03-29T17:26:21.027Z,16.30
2019-03-29T17:28:50.460Z,16.20
2019-03-29T17:31:20.346Z,16.10
2019-03-29T17:33:50.496Z,16.10
2019-03-29T17:36:20.739Z,16.10
2019-03-29T17:38:50.910Z,16.00
2019-03-29T17:41:20.928Z,16.00
2019-03-29T17:43:51.430Z,15.80
2019-03-29T17:46:21.433Z,15.70
2019-03-29T17:48:51.458Z,15.60
2019-03-29T17:51:21.565Z,15.40
2019-03-29T17:53:51.882Z,15.30
2019-03-29T17:56:21.914Z,15.10
2019-03-29T17:58:52.086Z,15.00
2019-03-29T18:01:22.211Z,14.80
2019-03-29T18:03:52.451Z,14.70
2019-03-29T18:06:22.624Z,14.50
2019-03-29T18:08:52.706Z,14.30
2019-03-29T18:11:22.894Z,14.10
2019-03-29T18:13:53.046Z,14.00
2019-03-29T18:16:30.415Z,13.80
2019-03-29T18:18:54.274Z,13.60
2019-03-29T18:21:23.616Z,13.40
2019-03-29T18:23:53.941Z,13.30
2019-03-29T18:26:24.413Z,13.10
2019-03-29T18:28:54.156Z,13.00
2019-03-29T18:31:24.246Z,12.90
2019-03-29T18:33:54.398Z,12.70
2019-03-29T18:36:24.470Z,12.60
2019-03-29T18:38:54.641Z,12.50
2019-03-29T18:41:24.711Z,12.40
2019-03-29T18:43:55.105Z,12.20
2019-03-29T18:46:25.085Z,12.20
2019-03-29T18:48:55.600Z,12.10
2019-03-29T18:51:25.313Z,12.00
2019-03-29T18:53:55.557Z,12.00
2019-03-29T18:56:25.855Z,11.90
2019-03-29T18:58:55.923Z,11.80
2019-03-29T19:01:26.031Z,11.70
2019-03-29T19:03:56.132Z,11.60
2019-03-29T19:06:26.239Z,11.50
2019-03-29T19:08:56.525Z,11.40
2019-03-29T19:11:26.658Z,11.20
2019-03-29T19:13:56.918Z,11.20
2019-03-29T19:16:27.065Z,11.10
2019-03-29T19:19:09.446Z,11.10
2019-03-29T19:21:29.186Z,11.00
2019-03-29T19:23:58.543Z,11.00
2019-03-29T19:26:27.928Z,10.90
2019-03-29T19:28:57.858Z,10.80
2019-03-29T19:31:27.994Z,10.70
2019-03-29T19:33:58.142Z,10.60
2019-03-29T19:36:28.635Z,10.60
2019-03-29T19:38:58.431Z,10.50
2019-03-29T19:41:28.667Z,10.40
2019-03-29T19:43:58.739Z,10.40
2019-03-29T19:46:29.003Z,10.30
2019-03-29T19:48:59.075Z,10.20
2019-03-29T19:51:29.241Z,10.20
2019-03-29T19:54:07.365Z,10.10
2019-03-29T19:56:30.443Z,10.00
2019-03-29T19:58:59.725Z,9.90
2019-03-29T20:01:29.897Z,9.90
2019-03-29T20:04:00.036Z,9.80
2019-03-29T20:06:30.189Z,9.70
2019-03-29T20:09:01.271Z,9.70
2019-03-29T20:11:32.302Z,9.60
2019-03-29T20:14:01.628Z,9.60
2019-03-29T20:16:30.980Z,9.50
2019-03-29T20:19:00.944Z,9.50
2019-03-29T20:21:30.986Z,9.40
2019-03-29T20:24:01.246Z,9.40
2019-03-29T20:26:31.498Z,9.40
2019-03-29T20:29:01.546Z,9.30
2019-03-29T20:31:31.829Z,9.30
2019-03-29T20:34:01.866Z,9.20
2019-03-29T20:36:32.006Z,9.10
2019-03-29T20:39:07.648Z,9.10
2019-03-29T20:41:37.466Z,9.10
2019-03-29T20:44:06.814Z,9.00
2019-03-29T20:46:36.192Z,9.00
2019-03-29T20:49:05.610Z,8.90
2019-03-29T20:51:35.928Z,8.90
2019-03-29T20:54:05.244Z,8.90
2019-03-29T20:56:34.619Z,8.80
2019-03-29T20:59:04.079Z,8.70
2019-03-29T21:01:33.905Z,8.70
2019-03-29T21:04:03.814Z,8.60
2019-03-29T21:06:34.040Z,8.50
2019-03-29T21:09:06.905Z,8.50
2019-03-29T21:11:36.510Z,8.40
2019-03-29T21:14:05.830Z,8.40
2019-03-29T21:16:35.181Z,8.40
2019-03-29T21:19:04.791Z,8.30
2019-03-29T21:21:35.093Z,8.30
2019-03-29T21:24:05.229Z,8.30
2019-03-29T21:26:35.289Z,8.20
2019-03-29T21:29:11.566Z,8.20
2019-03-29T21:31:40.869Z,8.20
2019-03-29T21:34:10.217Z,8.20
2019-03-29T21:36:39.583Z,8.10
2019-03-29T21:39:11.538Z,8.10
2019-03-29T21:41:41.013Z,8.00
2019-03-29T21:44:11.291Z,7.90
2019-03-29T21:46:40.658Z,7.90
2019-03-29T21:49:10.022Z,7.90
2019-03-29T21:51:39.422Z,7.80
2019-03-29T21:54:08.726Z,7.80
2019-03-29T21:56:38.070Z,7.70
2019-03-29T21:59:07.482Z,7.70
2019-03-29T22:01:36.873Z,7.70
2019-03-29T22:04:06.250Z,7.70
2019-03-29T22:06:35.802Z,7.70
2019-03-29T22:09:07.462Z,7.60
2019-03-29T22:11:37.021Z,7.60
2019-03-29T22:16:33.262Z,7.60
2019-03-29T22:19:03.553Z,7.50
2019-03-29T22:21:32.868Z,7.50
2019-03-29T22:24:02.287Z,7.50
2019-03-29T22:26:31.649Z,7.40
2019-03-29T22:29:01.308Z,7.40
2019-03-29T22:31:30.684Z,7.40
2019-03-29T22:34:00.311Z,7.30
2019-03-29T22:36:29.624Z,7.30
2019-03-29T22:38:58.947Z,7.30
2019-03-29T22:41:28.286Z,7.20
2019-03-29T22:43:57.671Z,7.20
2019-03-29T22:46:27.071Z,7.10
2019-03-29T22:48:56.409Z,7.00
2019-03-29T22:51:25.720Z,7.00
2019-03-29T22:54:08.105Z,7.00
2019-03-29T22:56:37.498Z,6.90
2019-03-29T22:59:06.840Z,6.90
2019-03-29T23:01:39.268Z,6.90
2019-03-29T23:04:08.735Z,6.80
2019-03-29T23:06:38.091Z,6.80
2019-03-29T23:09:11.483Z,6.70
2019-03-29T23:11:39.020Z,6.70
2019-03-29T23:14:08.352Z,6.70
2019-03-29T23:16:39.442Z,6.60
2019-03-29T23:19:08.950Z,6.60
2019-03-29T23:21:38.346Z,6.50
2019-03-29T23:24:07.733Z,6.50
2019-03-29T23:26:37.206Z,6.50
2019-03-29T23:29:06.610Z,6.50
2019-03-29T23:31:35.920Z,6.50
2019-03-29T23:34:05.216Z,6.40
2019-03-29T23:36:34.637Z,6.40
2019-03-29T23:39:05.269Z,6.40
2019-03-29T23:41:35.652Z,6.30
2019-03-29T23:44:04.945Z,6.30
2019-03-29T23:46:34.290Z,6.20
2019-03-29T23:49:03.619Z,6.20
2019-03-29T23:51:32.986Z,6.20
2019-03-29T23:54:02.288Z,6.20
2019-03-29T23:56:31.618Z,6.20
2019-03-29T23:59:00.959Z,6.20
